Time;durP1;ratioP1;P1;durP2;ratioP2;P2;SDS_P1;SDS_P2;PMS_P1;PMS_P2;Temp;Humidity;BMP_temperature;BMP_pressure;BME280_temperature;BME280_humidity;BME280_pressure;Samples;Min_cycle;Max_cycle;Signal;HPM_P1;HPM_P2
2022/06/23 00:01:44;;;;;;;3.42;1.92;;;17.40;60.10;;;;;;5051666;28;20073;-62
2022/06/23 00:04:19;;;;;;;3.05;1.95;;;17.40;59.70;;;;;;5051116;28;20130;-62
2022/06/23 00:06:55;;;;;;;4.18;2.80;;;17.40;59.60;;;;;;5052276;28;20393;-62
2022/06/23 00:09:35;;;;;;;4.07;2.90;;;17.40;60.00;;;;;;5053763;28;20045;-62
2022/06/23 00:12:13;;;;;;;3.58;1.88;;;17.40;59.70;;;;;;5052531;28;20033;-62
2022/06/23 00:14:39;;;;;;;3.22;2.00;;;17.40;59.70;;;;;;5054900;28;20112;-64
2022/06/23 00:17:22;;;;;;;3.65;2.13;;;17.30;59.50;;;;;;5055895;28;20112;-62
2022/06/23 00:19:48;;;;;;;2.88;2.40;;;17.40;59.50;;;;;;5053294;28;20036;-62
2022/06/23 00:22:17;;;;;;;2.75;2.03;;;17.40;59.40;;;;;;5053285;28;20066;-62
2022/06/23 00:24:44;;;;;;;3.30;2.50;;;17.40;59.30;;;;;;5053787;28;20496;-62
2022/06/23 00:27:18;;;;;;;3.92;2.33;;;17.40;59.30;;;;;;5052345;28;20087;-62
2022/06/23 00:29:46;;;;;;;4.88;3.30;;;17.40;59.30;;;;;;5066824;28;20111;-62
2022/06/23 00:32:13;;;;;;;4.40;3.15;;;17.40;59.30;;;;;;5052322;28;20072;-62
2022/06/23 00:35:01;;;;;;;4.28;3.55;;;17.40;59.40;;;;;;5051967;28;20033;-62
2022/06/23 00:37:28;;;;;;;4.63;3.13;;;17.40;59.40;;;;;;5051606;28;20125;-63
2022/06/23 00:40:05;;;;;;;5.75;3.92;;;17.30;59.50;;;;;;5050681;28;20488;-63
2022/06/23 00:42:38;;;;;;;5.45;3.50;;;17.30;59.80;;;;;;5051585;28;20033;-63
2022/06/23 00:45:10;;;;;;;4.53;3.47;;;17.20;60.00;;;;;;5051904;28;20033;-62
2022/06/23 00:48:08;;;;;;;3.85;3.13;;;17.10;60.20;;;;;;5050260;28;20048;-63
2022/06/23 00:50:47;;;;;;;4.28;3.63;;;17.10;60.20;;;;;;5051686;28;20037;-62
2022/06/23 00:53:45;;;;;;;4.38;3.80;;;17.00;60.40;;;;;;5053837;28;20507;-63
2022/06/23 00:56:26;;;;;;;3.72;2.92;;;16.90;60.60;;;;;;5037251;28;20087;-62
2022/06/23 00:58:58;;;;;;;4.07;2.85;;;16.90;60.80;;;;;;5050502;28;20041;-62
2022/06/23 01:01:46;;;;;;;4.07;2.80;;;16.80;60.70;;;;;;5050550;28;20069;-63
2022/06/23 01:04:45;;;;;;;5.57;3.65;;;16.80;60.60;;;;;;5050108;28;20127;-62
2022/06/23 01:07:27;;;;;;;3.50;2.50;;;16.80;60.70;;;;;;5051671;28;20041;-62
2022/06/23 01:10:16;;;;;;;4.82;3.50;;;16.80;60.60;;;;;;5052326;28;20364;-62
2022/06/23 01:12:46;;;;;;;5.03;3.30;;;16.80;60.70;;;;;;5057409;28;20128;-63
2022/06/23 01:15:37;;;;;;;3.60;2.38;;;16.80;60.60;;;;;;5051781;28;20044;-63
2022/06/23 01:18:30;;;;;;;4.57;3.38;;;16.80;60.60;;;;;;5051570;28;20040;-62
2022/06/23 01:21:07;;;;;;;4.78;2.88;;;16.80;60.80;;;;;;5049802;28;20033;-62
2022/06/23 01:24:12;;;;;;;4.88;3.88;;;16.70;60.80;;;;;;5052896;28;20033;-62
2022/06/23 01:26:41;;;;;;;4.80;3.90;;;16.70;61.10;;;;;;5052080;28;20384;-62
2022/06/23 01:29:22;;;;;;;4.25;3.40;;;16.60;61.20;;;;;;5049621;28;20091;-63
2022/06/23 01:31:56;;;;;;;3.72;2.88;;;16.60;61.50;;;;;;5051762;28;20045;-63
2022/06/23 01:34:37;;;;;;;3.78;2.78;;;16.60;61.50;;;;;;5051519;28;20614;-63
2022/06/23 01:37:50;;;;;;;3.25;2.55;;;16.50;61.40;;;;;;5050369;28;20040;-62
2022/06/23 01:40:28;;;;;;;4.38;2.15;;;16.50;61.30;;;;;;5044757;28;20095;-62
2022/06/23 01:43:24;;;;;;;3.95;3.00;;;16.50;61.30;;;;;;5050748;28;20075;-62
2022/06/23 01:45:59;;;;;;;5.75;4.13;;;16.50;61.30;;;;;;5049724;28;20059;-63
2022/06/23 01:48:51;;;;;;;5.13;3.45;;;16.50;61.60;;;;;;5051094;28;20115;-63
2022/06/23 01:51:32;;;;;;;4.65;3.92;;;16.50;61.60;;;;;;5050309;28;20499;-62
2022/06/23 01:54:16;;;;;;;3.92;2.80;;;16.40;61.60;;;;;;5047720;28;20056;-62
2022/06/23 01:56:52;;;;;;;4.28;2.53;;;16.50;62.00;;;;;;5049102;28;20068;-63
2022/06/23 01:59:37;;;;;;;5.20;4.00;;;16.40;61.50;;;;;;5050298;28;20430;-62
2022/06/23 02:02:15;;;;;;;5.90;3.72;;;16.40;61.70;;;;;;5050717;28;20057;-62
2022/06/23 02:04:54;;;;;;;3.72;2.47;;;16.40;61.80;;;;;;5048870;28;20037;-63
2022/06/23 02:07:50;;;;;;;3.80;2.70;;;16.40;61.70;;;;;;5050468;28;20041;-62
2022/06/23 02:10:54;;;;;;;6.15;2.53;;;16.40;61.30;;;;;;5050158;28;20087;-62
2022/06/23 02:13:29;;;;;;;4.10;2.80;;;16.40;61.10;;;;;;5042927;28;20146;-63
2022/06/23 02:16:05;;;;;;;4.53;2.17;;;16.40;61.20;;;;;;5050249;28;20076;-62
2022/06/23 02:18:43;;;;;;;3.60;2.50;;;16.40;61.10;;;;;;5056343;28;20392;-63
2022/06/23 02:21:36;;;;;;;4.22;2.65;;;16.40;61.00;;;;;;5050844;28;20036;-62
2022/06/23 02:24:11;;;;;;;3.28;2.05;;;16.40;60.70;;;;;;5049948;28;20410;-63
2022/06/23 02:27:07;;;;;;;2.60;2.20;;;16.40;60.60;;;;;;5048872;28;20072;-62
2022/06/23 02:30:01;;;;;;;3.85;2.67;;;16.50;60.40;;;;;;5049533;28;20416;-62
2022/06/23 02:33:05;;;;;;;5.57;4.00;;;16.50;60.40;;;;;;5048851;28;20457;-63
2022/06/23 02:35:55;;;;;;;3.35;2.97;;;16.50;60.70;;;;;;5055026;28;20339;-63
2022/06/23 02:38:47;;;;;;;3.30;2.55;;;16.50;60.60;;;;;;5049092;28;20037;-62
2022/06/23 02:41:27;;;;;;;5.40;3.53;;;16.50;60.30;;;;;;5049040;28;20053;-62
2022/06/23 02:44:13;;;;;;;4.03;3.30;;;16.50;60.30;;;;;;5056335;28;20544;-62
2022/06/23 02:47:04;;;;;;;5.35;3.38;;;16.50;60.30;;;;;;5049361;28;20079;-62
2022/06/23 02:49:36;;;;;;;5.25;3.53;;;16.60;60.50;;;;;;5040741;28;20056;-62
2022/06/23 02:52:21;;;;;;;7.85;6.18;;;16.50;60.40;;;;;;5047749;28;20051;-62
2022/06/23 02:54:53;;;;;;;8.20;5.10;;;16.50;61.10;;;;;;5028276;28;20049;-63
2022/06/23 02:57:32;;;;;;;6.53;5.03;;;16.50;61.10;;;;;;5048710;28;20040;-63
2022/06/23 03:00:43;;;;;;;6.97;5.57;;;16.50;61.20;;;;;;5050744;28;20048;-62
2022/06/23 03:03:18;;;;;;;7.25;4.85;;;16.50;61.50;;;;;;5054776;28;20049;-63
2022/06/23 03:05:59;;;;;;;6.60;5.60;;;16.40;61.50;;;;;;5049510;28;20422;-63
2022/06/23 03:08:49;;;;;;;5.85;4.65;;;16.30;61.40;;;;;;5049038;28;20507;-63
2022/06/23 03:11:51;;;;;;;4.22;3.60;;;16.30;61.30;;;;;;5048622;28;20040;-68
2022/06/23 03:14:19;;;;;;;4.55;3.90;;;16.30;61.10;;;;;;5048348;28;20040;-62
2022/06/23 03:16:51;;;;;;;4.13;3.10;;;16.30;61.10;;;;;;5048561;28;20045;-63
2022/06/23 03:19:25;;;;;;;5.97;4.90;;;16.30;61.00;;;;;;5048849;28;20044;-63
2022/06/23 03:22:01;;;;;;;4.82;4.13;;;16.30;61.10;;;;;;5049604;28;20051;-63
2022/06/23 03:24:35;;;;;;;8.38;6.45;;;16.20;61.20;;;;;;5048347;28;20081;-68
2022/06/23 03:27:07;;;;;;;6.13;4.90;;;16.30;61.40;;;;;;5047671;28;20102;-68
2022/06/23 03:29:40;;;;;;;7.32;6.00;;;16.20;61.40;;;;;;5048893;28;20059;-68
2022/06/23 03:32:14;;;;;;;7.72;5.80;;;16.20;61.50;;;;;;5050121;28;20048;-68
2022/06/23 03:35:04;;;;;;;7.07;5.82;;;16.20;61.70;;;;;;5049085;28;21044;-68
2022/06/23 03:37:55;;;;;;;7.45;5.43;;;16.20;61.70;;;;;;5047816;28;20075;-63
2022/06/23 03:43:19;;;;;;;4.63;4.00;;;16.10;61.40;;;;;;5048546;28;20041;-64
2022/06/23 03:45:52;;;;;;;7.78;5.50;;;16.00;61.30;;;;;;5057879;28;20045;-69
2022/06/23 03:48:30;;;;;;;7.70;6.28;;;16.00;61.60;;;;;;5048359;28;20048;-70
2022/06/23 03:51:17;;;;;;;7.85;6.47;;;16.00;61.70;;;;;;5049039;28;20048;-70
2022/06/23 03:54:16;;;;;;;8.05;7.25;;;16.00;61.90;;;;;;5047871;28;20041;-68
2022/06/23 03:56:57;;;;;;;7.28;6.57;;;16.00;62.10;;;;;;5048390;28;20124;-69
2022/06/23 03:59:52;;;;;;;8.82;7.45;;;15.90;62.20;;;;;;5046910;28;20037;-69
2022/06/23 04:02:23;;;;;;;8.02;6.85;;;15.80;62.50;;;;;;5049831;28;20039;-70
2022/06/23 04:04:52;;;;;;;10.65;7.70;;;15.70;62.80;;;;;;5048909;28;20059;-69
2022/06/23 04:07:44;;;;;;;8.68;6.30;;;15.70;63.20;;;;;;5047367;28;20048;-69
2022/06/23 04:10:14;;;;;;;8.32;6.65;;;15.60;63.40;;;;;;5047517;28;20041;-71
2022/06/23 04:12:51;;;;;;;10.43;8.10;;;15.50;63.80;;;;;;5030965;28;20128;-69
2022/06/23 04:15:28;;;;;;;9.68;7.00;;;15.40;64.10;;;;;;5047479;28;20134;-69
2022/06/23 04:18:04;;;;;;;6.82;5.47;;;15.40;64.40;;;;;;5047792;28;20037;-69
2022/06/23 04:20:35;;;;;;;6.90;6.20;;;15.30;64.40;;;;;;5028681;28;20045;-68
2022/06/23 04:23:03;;;;;;;8.23;7.05;;;15.40;64.70;;;;;;5064521;28;20092;-69
2022/06/23 04:25:45;;;;;;;11.18;8.38;;;15.30;64.90;;;;;;5047526;28;20395;-69
2022/06/23 04:28:23;;;;;;;10.45;8.20;;;15.30;65.40;;;;;;5063715;28;20059;-69
2022/06/23 04:30:50;;;;;;;10.65;8.38;;;15.20;65.90;;;;;;5048367;28;20053;-70
2022/06/23 04:33:20;;;;;;;10.98;8.43;;;15.10;66.10;;;;;;5049050;28;20037;-69
2022/06/23 04:35:51;;;;;;;10.65;7.70;;;15.10;66.60;;;;;;5047454;28;20044;-69
2022/06/23 04:38:30;;;;;;;11.93;8.82;;;15.00;67.00;;;;;;5048595;28;20032;-69
2022/06/23 04:41:04;;;;;;;10.15;8.70;;;15.00;67.40;;;;;;5057116;28;20045;-68
2022/06/23 04:43:41;;;;;;;12.68;9.20;;;15.00;67.80;;;;;;5051593;28;20040;-68
2022/06/23 04:46:32;;;;;;;11.40;9.35;;;14.90;68.10;;;;;;5052628;28;20108;-69
2022/06/23 04:49:23;;;;;;;10.80;8.68;;;14.90;68.40;;;;;;5045155;28;20040;-68
2022/06/23 04:51:54;;;;;;;13.15;9.07;;;14.80;68.70;;;;;;5052489;28;20381;-68
2022/06/23 04:54:25;;;;;;;13.70;9.27;;;14.80;68.70;;;;;;5051385;28;20526;-68
2022/06/23 04:56:56;;;;;;;11.30;9.05;;;14.80;69.30;;;;;;5050623;28;20086;-69
2022/06/23 04:59:43;;;;;;;10.90;9.30;;;14.80;69.50;;;;;;5058106;28;20045;-69
2022/06/23 05:02:19;;;;;;;11.30;9.30;;;14.70;69.80;;;;;;5052561;28;20623;-70
2022/06/23 05:04:50;;;;;;;13.50;10.07;;;14.80;70.10;;;;;;5060010;28;20110;-69
2022/06/23 05:07:24;;;;;;;13.27;9.20;;;14.80;70.10;;;;;;5051495;28;20075;-69
2022/06/23 05:09:57;;;;;;;11.60;9.52;;;14.80;70.40;;;;;;5052808;28;20083;-68
2022/06/23 05:12:33;;;;;;;12.73;9.93;;;14.80;70.60;;;;;;5051225;28;20048;-68
2022/06/23 05:15:34;;;;;;;13.68;9.27;;;14.90;70.90;;;;;;5051047;28;20120;-68
2022/06/23 05:18:05;;;;;;;11.98;9.38;;;15.00;71.20;;;;;;5054690;28;20400;-69
2022/06/23 05:20:40;;;;;;;9.60;8.60;;;15.10;71.30;;;;;;5034643;28;20044;-69
2022/06/23 05:23:17;;;;;;;9.95;8.25;;;15.20;71.40;;;;;;5053178;28;20068;-68
2022/06/23 05:25:48;;;;;;;10.57;9.07;;;15.30;71.70;;;;;;5054887;28;20033;-70
2022/06/23 05:28:26;;;;;;;10.88;8.60;;;15.60;71.60;;;;;;5050996;28;20044;-70
2022/06/23 05:31:06;;;;;;;10.27;8.77;;;15.80;71.30;;;;;;5052534;28;20053;-69
2022/06/23 05:33:35;;;;;;;11.32;8.63;;;16.00;70.70;;;;;;5053294;28;20033;-70
2022/06/23 05:36:13;;;;;;;9.38;8.07;;;16.30;70.60;;;;;;5053658;28;20056;-70
2022/06/23 05:39:00;;;;;;;9.18;8.27;;;16.50;70.30;;;;;;5053552;28;20041;-71
2022/06/23 05:41:39;;;;;;;9.90;7.28;;;16.90;69.30;;;;;;5053565;28;20041;-71
2022/06/23 05:44:16;;;;;;;10.25;8.00;;;17.10;69.00;;;;;;5053366;28;20389;-70
2022/06/23 05:46:43;;;;;;;8.75;7.20;;;17.40;68.60;;;;;;5053894;28;20393;-70
2022/06/23 05:49:19;;;;;;;8.73;6.68;;;17.60;68.40;;;;;;5053638;28;20036;-70
2022/06/23 05:52:00;;;;;;;9.70;7.25;;;18.00;67.40;;;;;;5052290;28;20048;-70
2022/06/23 05:54:44;;;;;;;9.88;7.05;;;18.30;66.80;;;;;;5054052;28;20041;-71
2022/06/23 05:57:22;;;;;;;9.65;6.85;;;18.70;65.90;;;;;;5053786;28;20033;-70
2022/06/23 05:59:55;;;;;;;8.90;6.68;;;18.90;64.90;;;;;;5053106;28;20040;-69
2022/06/23 06:02:36;;;;;;;7.65;6.10;;;19.10;64.50;;;;;;5052321;28;20047;-70
2022/06/23 06:05:02;;;;;;;8.23;6.40;;;19.30;64.50;;;;;;5034471;28;20486;-70
2022/06/23 06:07:34;;;;;;;7.15;6.18;;;19.60;63.20;;;;;;5053063;28;20515;-69
2022/06/23 06:10:06;;;;;;;8.63;6.10;;;19.80;62.40;;;;;;5053906;28;20052;-70
2022/06/23 06:12:38;;;;;;;8.32;6.28;;;19.90;62.00;;;;;;5054130;28;20037;-70
2022/06/23 06:15:20;;;;;;;7.88;5.70;;;20.10;61.10;;;;;;5053403;28;20045;-70
2022/06/23 06:17:48;;;;;;;6.82;6.03;;;20.30;60.70;;;;;;5042767;28;20041;-68
2022/06/23 06:20:14;;;;;;;7.10;5.82;;;20.60;60.20;;;;;;5053661;28;20544;-69
2022/06/23 06:22:58;;;;;;;9.90;7.03;;;20.80;59.20;;;;;;5054051;28;20482;-68
2022/06/23 06:25:33;;;;;;;7.82;6.35;;;20.90;58.50;;;;;;5051908;28;20480;-68
2022/06/23 06:28:24;;;;;;;9.85;5.93;;;21.00;58.10;;;;;;5052439;28;20061;-68
2022/06/23 06:31:04;;;;;;;7.78;6.07;;;21.10;58.70;;;;;;5046056;28;20049;-69
2022/06/23 06:33:50;;;;;;;7.93;6.57;;;21.20;58.00;;;;;;5039531;28;20500;-68
2022/06/23 06:36:39;;;;;;;6.72;5.20;;;21.30;57.80;;;;;;5051536;28;20476;-69
2022/06/23 06:39:28;;;;;;;8.48;6.07;;;21.60;58.20;;;;;;5052369;28;20053;-69
2022/06/23 06:42:09;;;;;;;8.20;6.40;;;21.90;57.40;;;;;;5052131;28;20131;-69
2022/06/23 06:44:40;;;;;;;7.60;6.25;;;22.10;57.10;;;;;;5052511;28;20037;-68
2022/06/23 06:47:14;;;;;;;7.40;5.50;;;22.30;56.10;;;;;;5053614;28;20123;-69
2022/06/23 06:49:40;;;;;;;7.00;5.57;;;22.30;55.70;;;;;;5052206;28;20041;-69
2022/06/23 06:52:07;;;;;;;6.10;5.40;;;22.30;55.20;;;;;;5068418;28;20564;-68
2022/06/23 06:54:42;;;;;;;7.57;5.65;;;22.40;55.60;;;;;;5053212;28;20037;-69
2022/06/23 06:57:18;;;;;;;8.85;5.80;;;22.50;55.00;;;;;;5052009;28;20132;-68
2022/06/23 06:59:51;;;;;;;6.55;5.90;;;22.60;55.40;;;;;;5053118;28;20051;-69
2022/06/23 07:02:23;;;;;;;7.35;5.38;;;22.70;55.30;;;;;;5053447;28;20091;-68
2022/06/23 07:04:56;;;;;;;7.10;5.50;;;22.90;55.10;;;;;;5051849;28;20476;-68
2022/06/23 07:07:27;;;;;;;6.93;4.73;;;23.10;54.80;;;;;;5051970;28;20095;-69
2022/06/23 07:10:20;;;;;;;6.05;4.82;;;23.30;54.30;;;;;;5053199;28;20766;-68
2022/06/23 07:12:59;;;;;;;6.65;4.50;;;23.50;53.90;;;;;;5047351;28;20059;-69
2022/06/23 07:15:31;;;;;;;8.30;4.50;;;23.70;53.70;;;;;;5051649;28;20052;-69
2022/06/23 07:18:05;;;;;;;6.47;4.57;;;23.80;53.40;;;;;;5053214;28;20095;-68
2022/06/23 07:21:08;;;;;;;6.40;4.43;;;23.90;52.80;;;;;;5052862;28;20111;-68
2022/06/23 07:23:43;;;;;;;7.07;4.50;;;24.10;52.80;;;;;;5052453;28;20039;-69
2022/06/23 07:26:40;;;;;;;7.40;4.65;;;24.20;52.30;;;;;;5052510;28;20086;-69
2022/06/23 07:29:28;;;;;;;6.65;4.32;;;24.30;51.10;;;;;;5052794;28;20060;-68
2022/06/23 07:32:08;;;;;;;6.70;4.38;;;24.40;50.90;;;;;;5052093;28;20392;-68
2022/06/23 07:34:40;;;;;;;6.78;4.72;;;24.50;50.60;;;;;;5051643;28;20052;-68
2022/06/23 07:37:25;;;;;;;5.45;3.65;;;24.60;50.10;;;;;;5051956;28;20041;-68
2022/06/23 07:39:58;;;;;;;6.53;3.75;;;24.70;50.90;;;;;;5052269;28;20072;-69
2022/06/23 07:42:24;;;;;;;;;;;24.80;50.20;;;;;;5053038;28;20467;-68
2022/06/23 07:44:55;;;;;;;6.30;3.92;;;24.80;49.70;;;;;;5052679;28;19999;-68
2022/06/23 07:47:21;;;;;;;5.28;3.80;;;24.80;50.60;;;;;;5050550;28;20125;-68
2022/06/23 07:49:47;;;;;;;6.07;4.30;;;24.80;50.40;;;;;;5051122;28;20465;-69
2022/06/23 07:52:15;;;;;;;5.57;3.20;;;24.90;49.10;;;;;;5052413;28;20049;-68
2022/06/23 07:54:42;;;;;;;6.45;3.75;;;25.00;49.30;;;;;;5052542;28;20645;-69
2022/06/23 07:57:12;;;;;;;6.15;3.50;;;25.10;49.40;;;;;;5052043;28;20393;-67
2022/06/23 07:59:48;;;;;;;5.32;3.40;;;25.30;49.50;;;;;;5051153;28;20507;-68
2022/06/23 08:02:32;;;;;;;4.70;2.95;;;25.50;49.10;;;;;;5052481;28;20037;-67
2022/06/23 08:05:09;;;;;;;6.53;3.28;;;25.70;47.90;;;;;;5052204;28;20673;-69
2022/06/23 08:07:37;;;;;;;5.00;3.40;;;25.70;47.00;;;;;;5051118;28;20033;-67
2022/06/23 08:10:24;;;;;;;5.85;3.03;;;25.80;47.30;;;;;;5051238;28;20493;-68
2022/06/23 08:13:18;;;;;;;5.90;2.92;;;25.90;47.60;;;;;;5052428;28;20048;-68
2022/06/23 08:19:09;;;;;;;4.43;2.67;;;26.10;47.30;;;;;;5054378;28;20091;-68
2022/06/23 08:21:51;;;;;;;5.90;3.70;;;26.30;48.20;;;;;;5053900;28;20051;-68
2022/06/23 08:24:23;;;;;;;5.18;3.30;;;26.40;48.00;;;;;;5055013;28;20037;-69
2022/06/23 08:26:57;;;;;;;6.78;3.22;;;26.50;47.80;;;;;;5054368;28;20049;-68
2022/06/23 08:29:30;;;;;;;7.65;3.53;;;26.70;47.00;;;;;;5053712;28;20548;-68
2022/06/23 08:31:58;;;;;;;4.03;2.72;;;26.70;47.50;;;;;;5054250;28;20048;-69
2022/06/23 08:34:23;;;;;;;5.63;2.65;;;26.90;47.10;;;;;;5054430;28;20357;-68
2022/06/23 08:36:55;;;;;;;5.55;2.60;;;27.10;46.70;;;;;;5052953;28;20091;-69
2022/06/23 08:39:33;;;;;;;5.18;3.17;;;27.20;45.80;;;;;;5054527;28;20158;-68
2022/06/23 08:42:19;;;;;;;3.30;2.45;;;27.30;45.10;;;;;;5055253;28;20112;-69
2022/06/23 08:45:16;;;;;;;6.03;2.42;;;27.40;45.00;;;;;;5053726;28;20492;-68
2022/06/23 08:48:11;;;;;;;5.50;2.40;;;27.50;44.60;;;;;;5052855;28;20040;-69
2022/06/23 08:50:45;;;;;;;5.15;2.33;;;27.60;44.70;;;;;;5053017;28;20047;-68
2022/06/23 08:53:21;;;;;;;4.13;2.30;;;27.70;44.10;;;;;;5054833;28;20103;-68
2022/06/23 08:55:55;;;;;;;5.10;2.90;;;27.90;42.60;;;;;;5053491;28;20049;-68
2022/06/23 08:58:52;;;;;;;4.50;2.70;;;28.00;42.80;;;;;;5055437;28;20037;-68
2022/06/23 09:01:35;;;;;;;4.07;2.33;;;28.00;42.70;;;;;;5055069;28;20133;-69
2022/06/23 09:04:08;;;;;;;3.28;2.55;;;28.00;43.90;;;;;;5052312;28;20069;-68
2022/06/23 09:06:57;;;;;;;5.57;2.25;;;28.20;42.70;;;;;;5051485;28;20033;-68
2022/06/23 09:09:22;;;;;;;4.65;2.58;;;28.30;42.00;;;;;;5045437;28;20396;-69
2022/06/23 09:12:00;;;;;;;5.68;2.45;;;28.40;41.10;;;;;;5054678;28;20041;-69
2022/06/23 09:14:33;;;;;;;2.67;2.10;;;28.40;40.40;;;;;;5050912;28;20049;-68
2022/06/23 09:17:14;;;;;;;;;;;28.40;40.80;;;;;;5048998;28;20033;-68
2022/06/23 09:20:16;;;;;;;5.22;2.60;;;28.40;42.00;;;;;;5047551;28;19917;-68
2022/06/23 09:22:42;;;;;;;5.50;2.60;;;28.40;41.60;;;;;;5055067;28;20167;-68
2022/06/23 09:25:44;;;;;;;4.55;2.20;;;28.50;41.50;;;;;;5054471;28;20068;-68
2022/06/23 09:28:20;;;;;;;6.97;2.20;;;28.60;40.50;;;;;;5051608;28;20112;-68
2022/06/23 09:31:09;;;;;;;3.85;1.92;;;28.60;40.10;;;;;;5052459;28;20489;-69
2022/06/23 09:33:48;;;;;;;4.68;2.45;;;28.60;40.60;;;;;;5052511;28;20075;-69
2022/06/23 09:36:17;;;;;;;4.25;2.38;;;28.60;40.20;;;;;;5053755;28;20053;-68
2022/06/23 09:39:01;;;;;;;4.55;2.17;;;28.70;41.00;;;;;;5053668;28;20045;-69
2022/06/23 09:42:04;;;;;;;3.10;2.10;;;28.80;40.90;;;;;;5052457;28;20055;-69
2022/06/23 09:45:13;;;;;;;3.75;2.45;;;28.90;40.80;;;;;;5043327;28;20052;-69
2022/06/23 09:47:45;;;;;;;4.28;2.15;;;29.10;39.30;;;;;;5052669;28;20045;-70
2022/06/23 09:50:25;;;;;;;4.50;2.33;;;29.20;40.00;;;;;;5053206;28;20036;-69
2022/06/23 09:53:17;;;;;;;4.00;2.20;;;29.20;40.20;;;;;;5054443;28;20392;-71
2022/06/23 09:55:45;;;;;;;4.15;2.42;;;29.30;39.60;;;;;;5039349;28;20057;-70
2022/06/23 09:58:30;;;;;;;6.30;2.35;;;29.40;40.20;;;;;;5042262;28;20186;-70
2022/06/23 10:01:36;;;;;;;3.78;2.30;;;29.50;39.50;;;;;;5053018;28;20041;-70
2022/06/23 10:04:10;;;;;;;4.45;2.20;;;29.50;40.00;;;;;;5033358;28;20056;-70
2022/06/23 10:06:39;;;;;;;5.25;3.22;;;29.50;39.40;;;;;;5036201;28;20044;-68
2022/06/23 10:09:14;;;;;;;4.28;2.30;;;29.50;39.50;;;;;;5053401;28;20040;-69
2022/06/23 10:11:51;;;;;;;5.68;2.67;;;29.50;39.30;;;;;;5052432;28;20041;-70
2022/06/23 10:14:38;;;;;;;4.13;2.58;;;29.60;39.30;;;;;;5053082;28;20383;-70
2022/06/23 10:17:19;;;;;;;5.30;2.47;;;29.70;39.90;;;;;;5054454;28;20245;-69
2022/06/23 10:19:54;;;;;;;6.13;2.05;;;29.70;39.20;;;;;;5052967;28;20053;-69
2022/06/23 10:22:43;;;;;;;5.47;1.98;;;29.70;38.40;;;;;;5053816;28;20037;-70
2022/06/23 10:25:46;;;;;;;5.63;2.60;;;29.70;39.10;;;;;;5051464;28;20051;-70
2022/06/23 10:28:30;;;;;;;3.60;2.17;;;29.80;39.50;;;;;;5049901;28;20080;-69
2022/06/23 10:31:37;;;;;;;6.05;2.85;;;29.80;39.60;;;;;;5051020;28;20064;-69
2022/06/23 10:34:28;;;;;;;5.45;2.20;;;30.00;39.10;;;;;;5027525;28;20111;-69
2022/06/23 10:37:29;;;;;;;6.10;2.65;;;30.10;39.00;;;;;;5019345;28;20140;-69
2022/06/23 10:40:32;;;;;;;7.50;2.53;;;30.10;38.70;;;;;;5048075;28;20052;-72
2022/06/23 10:43:17;;;;;;;4.32;2.38;;;30.10;38.50;;;;;;5046158;28;20045;-69
2022/06/23 10:45:44;;;;;;;5.82;2.30;;;30.10;38.60;;;;;;5035647;28;20120;-70
2022/06/23 10:48:37;;;;;;;4.97;2.53;;;30.20;39.30;;;;;;5053177;28;20041;-70
2022/06/23 10:51:33;;;;;;;5.95;2.28;;;30.30;38.80;;;;;;5050560;28;20468;-70
2022/06/23 10:54:46;;;;;;;4.28;2.58;;;30.40;39.40;;;;;;5052736;28;20053;-69
2022/06/23 10:57:32;;;;;;;5.87;2.90;;;30.40;39.50;;;;;;5045531;28;20060;-69
2022/06/23 11:00:17;;;;;;;7.22;2.60;;;30.50;39.10;;;;;;5048729;28;20045;-69
2022/06/23 11:03:19;;;;;;;3.60;2.38;;;30.50;38.70;;;;;;5053442;28;20037;-69
2022/06/23 11:06:09;;;;;;;5.00;2.60;;;30.40;39.80;;;;;;5049776;28;20117;-69
2022/06/23 11:09:09;;;;;;;5.60;3.08;;;30.50;39.70;;;;;;5052322;28;20048;-70
2022/06/23 11:11:52;;;;;;;3.50;2.40;;;30.60;39.30;;;;;;5035903;28;20040;-69
2022/06/23 11:14:27;;;;;;;3.33;2.45;;;30.60;38.30;;;;;;5052676;28;20047;-69
2022/06/23 11:17:26;;;;;;;5.32;2.63;;;30.60;38.90;;;;;;5052499;28;20128;-67
2022/06/23 11:20:00;;;;;;;6.82;3.13;;;30.60;38.40;;;;;;5052223;28;20045;-68
2022/06/23 11:22:47;;;;;;;4.63;2.60;;;30.50;38.70;;;;;;5052475;28;20056;-69
2022/06/23 11:25:53;;;;;;;5.70;2.38;;;30.50;39.10;;;;;;5052424;28;20041;-69
2022/06/23 11:28:42;;;;;;;8.07;2.72;;;30.60;39.30;;;;;;5052281;28;20041;-69
2022/06/23 11:31:52;;;;;;;5.05;2.72;;;30.60;39.40;;;;;;5051605;28;20053;-68
2022/06/23 11:34:37;;;;;;;4.88;2.45;;;30.60;39.10;;;;;;5032901;28;20091;-69
2022/06/23 11:37:02;;;;;;;5.13;2.58;;;30.70;38.90;;;;;;5051254;28;20088;-69
2022/06/23 11:39:59;;;;;;;4.85;2.45;;;30.70;38.60;;;;;;5051511;28;20040;-69
2022/06/23 11:42:39;;;;;;;5.32;2.83;;;30.80;38.10;;;;;;5051039;28;20044;-67
2022/06/23 11:45:17;;;;;;;4.68;2.30;;;30.80;38.40;;;;;;5052731;28;20048;-69
2022/06/23 11:48:01;;;;;;;4.88;2.30;;;30.80;38.10;;;;;;5050817;28;20137;-69
2022/06/23 11:50:32;;;;;;;3.70;2.60;;;31.00;38.30;;;;;;5051586;28;20032;-69
2022/06/23 11:53:16;;;;;;;4.40;2.80;;;31.10;38.20;;;;;;5052468;28;20037;-68
2022/06/23 11:55:50;;;;;;;3.58;2.20;;;31.20;37.90;;;;;;5051903;28;20044;-69
2022/06/23 11:58:24;;;;;;;5.90;2.50;;;31.20;37.90;;;;;;5052490;28;20040;-61
2022/06/23 12:01:00;;;;;;;6.82;2.83;;;31.20;36.90;;;;;;5051777;28;20117;-63
2022/06/23 12:03:55;;;;;;;3.97;2.25;;;31.20;37.60;;;;;;5051236;28;20068;-63
2022/06/23 12:06:31;;;;;;;3.22;2.40;;;31.20;37.70;;;;;;5049965;28;20036;-63
2022/06/23 12:09:06;;;;;;;5.07;2.30;;;31.20;37.60;;;;;;5052149;28;20045;-63
2022/06/23 12:11:33;;;;;;;6.05;2.42;;;31.20;37.90;;;;;;5052366;28;20041;-63
2022/06/23 12:14:02;;;;;;;2.65;2.08;;;31.20;37.00;;;;;;5051085;28;20492;-63
2022/06/23 12:16:28;;;;;;;3.15;2.15;;;31.30;37.00;;;;;;5051865;28;20087;-62
2022/06/23 12:18:56;;;;;;;4.15;2.33;;;31.30;36.60;;;;;;5050533;28;20045;-63
2022/06/23 12:21:53;;;;;;;3.92;2.03;;;31.40;36.90;;;;;;5050983;28;20492;-63
2022/06/23 12:24:27;;;;;;;3.55;1.83;;;31.50;37.50;;;;;;5041672;28;20077;-63
2022/06/23 12:27:26;;;;;;;2.92;1.67;;;31.50;36.60;;;;;;5051237;28;20045;-63
2022/06/23 12:29:58;;;;;;;5.72;2.05;;;31.60;36.60;;;;;;5051005;28;20057;-63
2022/06/23 12:32:34;;;;;;;2.27;1.60;;;31.70;36.40;;;;;;5050256;28;20045;-63
2022/06/23 12:35:22;;;;;;;3.03;1.60;;;31.80;35.70;;;;;;5051971;28;20493;-63
2022/06/23 12:38:06;;;;;;;7.28;1.63;;;31.80;34.80;;;;;;5045964;28;20047;-63
2022/06/23 12:40:47;;;;;;;3.05;1.90;;;31.90;34.90;;;;;;5050301;28;20043;-63
2022/06/23 12:43:37;;;;;;;3.13;1.90;;;31.90;35.20;;;;;;5032690;28;20048;-63
2022/06/23 12:46:12;;;;;;;4.10;2.15;;;32.00;34.90;;;;;;5050949;28;20033;-62
2022/06/23 12:49:14;;;;;;;3.70;2.30;;;32.00;34.60;;;;;;5044604;28;20068;-63
2022/06/23 12:51:42;;;;;;;3.47;1.63;;;32.00;34.70;;;;;;5049960;28;20039;-62
2022/06/23 12:54:20;;;;;;;5.30;2.03;;;32.00;34.90;;;;;;5051821;28;20488;-63
2022/06/23 12:57:09;;;;;;;3.55;1.95;;;32.00;34.80;;;;;;5048670;28;20123;-63
2022/06/23 13:00:05;;;;;;;2.75;1.75;;;32.10;35.20;;;;;;5050249;28;20037;-62
2022/06/23 13:02:44;;;;;;;3.85;2.17;;;32.10;34.70;;;;;;5067916;28;20037;-62
2022/06/23 13:05:28;;;;;;;4.28;2.03;;;32.20;34.40;;;;;;5054790;28;20045;-64
2022/06/23 13:08:29;;;;;;;4.15;2.03;;;32.10;33.80;;;;;;5049980;28;20052;-63
2022/06/23 13:11:05;;;;;;;3.20;1.90;;;32.20;34.30;;;;;;5052555;28;20041;-63
2022/06/23 13:13:41;;;;;;;3.25;2.03;;;32.10;34.00;;;;;;5053617;28;20045;-66
2022/06/23 13:16:45;;;;;;;6.20;1.98;;;32.20;33.90;;;;;;5054926;28;20047;-68
2022/06/23 13:19:29;;;;;;;4.28;2.30;;;32.20;33.70;;;;;;5049530;28;20094;-68
2022/06/23 13:22:06;;;;;;;4.38;2.45;;;32.10;34.20;;;;;;5047315;28;20041;-67
2022/06/23 13:24:34;;;;;;;5.38;2.00;;;32.00;33.70;;;;;;5049347;28;20073;-68
2022/06/23 13:27:04;;;;;;;6.97;2.30;;;32.00;34.10;;;;;;5045356;28;20050;-67
2022/06/23 13:29:53;;;;;;;5.50;2.38;;;32.00;34.10;;;;;;5055233;28;20079;-68
2022/06/23 13:32:45;;;;;;;3.53;2.00;;;32.00;34.10;;;;;;5047304;28;20053;-67
2022/06/23 13:35:19;;;;;;;3.33;2.40;;;32.00;34.40;;;;;;5042788;28;20098;-67
2022/06/23 13:38:07;;;;;;;3.92;2.00;;;31.90;34.20;;;;;;5053546;28;20045;-68
2022/06/23 13:40:47;;;;;;;4.50;2.13;;;31.90;35.30;;;;;;5049428;28;20428;-66
2022/06/23 13:43:24;;;;;;;6.35;2.22;;;31.90;35.20;;;;;;5052931;28;20045;-73
2022/06/23 13:46:02;;;;;;;4.50;2.17;;;31.90;34.90;;;;;;5025811;28;20049;-73
2022/06/23 13:48:41;;;;;;;4.13;2.47;;;31.80;34.20;;;;;;5052888;28;20471;-74
2022/06/23 13:51:20;;;;;;;5.15;2.50;;;31.80;34.60;;;;;;5052913;28;20381;-74
2022/06/23 13:53:51;;;;;;;4.35;2.58;;;31.80;34.90;;;;;;5035348;28;20041;-73
2022/06/23 13:56:26;;;;;;;3.47;2.20;;;31.80;35.80;;;;;;5045606;28;20445;-73
2022/06/23 13:58:58;;;;;;;5.18;2.60;;;31.90;35.80;;;;;;5053391;28;20044;-74
2022/06/23 14:01:49;;;;;;;4.55;3.13;;;32.00;35.50;;;;;;5045780;28;20036;-74